Time;durP1;ratioP1;P1;durP2;ratioP2;P2;SDS_P1;SDS_P2;PMS_P1;PMS_P2;Temp;Humidity;BMP_temperature;BMP_pressure;BME280_temperature;BME280_humidity;BME280_pressure;Samples;Min_cycle;Max_cycle;Signal;HPM_P1;HPM_P2
2023/06/17 00:01:15;;;;;;;;;;;;;;;24.41;43.30;101550.22;5139705;27;19919;-65
2023/06/17 00:03:41;;;;;;;;;;;;;;;24.42;43.60;101551.88;5143599;27;19975;-65
2023/06/17 00:06:07;;;;;;;;;;;;;;;24.38;43.71;101544.50;5143341;27;19983;-65
2023/06/17 00:08:32;;;;;;;;;;;;;;;24.17;43.90;101545.28;5139407;27;19915;-66
2023/06/17 00:10:58;;;;;;;;;;;;;;;24.31;44.14;101550.25;5140649;27;19975;-65
2023/06/17 00:13:25;;;;;;;;;;;;;;;24.16;44.26;101549.13;5141005;27;19971;-64
2023/06/17 00:15:50;;;;;;;;;;;;;;;24.29;44.51;101549.69;5140360;27;19965;-65
2023/06/17 00:18:19;;;;;;;;;;;;;;;24.24;44.23;101541.50;5144751;27;19915;-66
2023/06/17 00:20:45;;;;;;;;;;;;;;;24.23;44.41;101542.59;5143226;27;19997;-65
2023/06/17 00:23:11;;;;;;;;;;;;;;;24.19;44.94;101545.03;5142417;27;19920;-66
2023/06/17 00:25:37;;;;;;;;;;;;;;;24.17;45.41;101539.03;5144220;27;19934;-66
2023/06/17 00:28:02;;;;;;;;;;;;;;;24.15;45.45;101533.81;5147679;27;19899;-66
2023/06/17 00:30:29;;;;;;;;;;;;;;;24.08;45.63;101526.97;5145187;27;19919;-65
2023/06/17 00:32:54;;;;;;;;;;;;;;;24.01;46.09;101527.22;5149133;27;20409;-65
2023/06/17 00:35:20;;;;;;;;;;;;;;;23.99;46.52;101523.91;5144402;27;19915;-66
2023/06/17 00:37:46;;;;;;;;;;;;;;;23.81;46.85;101523.34;5143141;27;19935;-65
2023/06/17 00:40:12;;;;;;;;;;;;;;;23.85;46.94;101529.91;5142585;27;19922;-65
2023/06/17 00:42:39;;;;;;;;;;;;;;;23.86;47.10;101526.06;5144301;27;19919;-64
2023/06/17 00:45:05;;;;;;;;;;;;;;;23.85;47.48;101524.44;5140962;27;19983;-65
2023/06/17 00:47:31;;;;;;;;;;;;;;;23.78;48.25;101521.16;5142300;27;19915;-65
2023/06/17 00:49:57;;;;;;;;;;;;;;;23.74;48.81;101525.47;5142261;27;19950;-64
2023/06/17 00:52:23;;;;;;;;;;;;;;;23.63;49.39;101525.47;5146697;27;19938;-65
2023/06/17 00:54:49;;;;;;;;;;;;;;;23.51;49.85;101519.38;5142510;27;19915;-65
2023/06/17 00:57:15;;;;;;;;;;;;;;;23.39;50.17;101518.81;5146528;27;19916;-65
2023/06/17 00:59:42;;;;;;;;;;;;;;;23.32;50.47;101514.41;5142834;27;19916;-65
2023/06/17 01:02:09;;;;;;;;;;;;;;;23.25;51.04;101507.53;5145868;27;19915;-65
2023/06/17 01:04:37;;;;;;;;;;;;;;;23.37;50.92;101510.06;5142378;27;19920;-65
2023/06/17 01:07:23;;;;;;;;;;;;;;;23.25;51.85;101511.09;5146001;27;19927;-64
2023/06/17 01:09:51;;;;;;;;;;;;;;;23.22;52.04;101514.31;5144106;27;19915;-65
2023/06/17 01:12:17;;;;;;;;;;;;;;;23.21;52.18;101518.13;5143199;27;19989;-65
2023/06/17 01:14:45;;;;;;;;;;;;;;;23.22;52.01;101508.84;5141024;27;19923;-66
2023/06/17 01:17:12;;;;;;;;;;;;;;;23.16;52.32;101513.47;5137227;27;19942;-66
2023/06/17 01:19:39;;;;;;;;;;;;;;;23.10;52.55;101506.34;5135150;27;19922;-66
2023/06/17 01:22:10;;;;;;;;;;;;;;;23.12;52.66;101514.28;5136569;27;19949;-65
2023/06/17 01:24:36;;;;;;;;;;;;;;;23.08;53.00;101513.16;5139553;27;19922;-66
2023/06/17 01:27:02;;;;;;;;;;;;;;;23.02;52.72;101512.31;5141243;27;19926;-66
2023/06/17 01:29:29;;;;;;;;;;;;;;;22.99;52.42;101510.91;5136095;27;19923;-65
2023/06/17 01:31:59;;;;;;;;;;;;;;;22.94;52.84;101508.16;5139418;27;19919;-65
2023/06/17 01:34:43;;;;;;;;;;;;;;;22.87;53.33;101507.56;5140714;27;19920;-65
2023/06/17 01:37:12;;;;;;;;;;;;;;;22.85;53.69;101507.03;5137786;27;19923;-65
2023/06/17 01:39:39;;;;;;;;;;;;;;;22.91;53.39;101511.41;5138941;27;19927;-65
2023/06/17 01:42:09;;;;;;;;;;;;;;;22.87;54.23;101508.38;5140750;27;19915;-66
2023/06/17 01:44:36;;;;;;;;;;;;;;;22.72;54.46;101509.09;5139548;27;19924;-65
2023/06/17 01:47:02;;;;;;;;;;;;;;;22.81;55.01;101503.16;5137876;27;19926;-66
2023/06/17 01:49:28;;;;;;;;;;;;;;;22.70;55.32;101505.81;5138922;27;19945;-65
2023/06/17 01:51:53;;;;;;;;;;;;;;;22.59;55.77;101504.91;5172978;27;19915;-65
2023/06/17 01:54:20;;;;;;;;;;;;;;;22.56;56.01;101502.72;5134730;27;19919;-65
2023/06/17 01:56:47;;;;;;;;;;;;;;;22.58;56.43;101503.28;5139790;27;19916;-65
2023/06/17 01:59:12;;;;;;;;;;;;;;;22.58;56.56;101508.72;5136012;27;19999;-65
2023/06/17 02:01:37;;;;;;;;;;;;;;;22.46;57.22;101508.91;5145420;27;19982;-66
2023/06/17 02:04:03;;;;;;;;;;;;;;;22.57;57.22;101498.91;5121980;27;19928;-66
2023/06/17 02:06:29;;;;;;;;;;;;;;;22.46;58.32;101495.28;5141582;27;19948;-66
2023/06/17 02:08:55;;;;;;;;;;;;;;;22.40;58.73;101496.28;5138823;27;19939;-66
2023/06/17 02:11:21;;;;;;;;;;;;;;;22.33;59.64;101492.94;5142613;27;19927;-66
2023/06/17 02:13:46;;;;;;;;;;;;;;;22.27;60.45;101493.97;5141868;27;19916;-65
2023/06/17 02:16:12;;;;;;;;;;;;;;;22.27;60.97;101493.97;5141873;27;19912;-65
2023/06/17 02:18:39;;;;;;;;;;;;;;;22.16;62.38;101490.34;5139191;27;19968;-65
2023/06/17 02:21:04;;;;;;;;;;;;;;;22.07;62.80;101495.44;5138039;27;20091;-65
2023/06/17 02:23:30;;;;;;;;;;;;;;;22.09;62.88;101497.91;5138237;27;20028;-66
2023/06/17 02:25:56;;;;;;;;;;;;;;;21.97;63.24;101495.34;5172702;27;19972;-65
2023/06/17 02:28:24;;;;;;;;;;;;;;;21.99;63.58;101498.63;5142813;27;19923;-65
2023/06/17 02:30:50;;;;;;;;;;;;;;;21.89;64.05;101491.97;5142158;27;20225;-65
2023/06/17 02:33:18;;;;;;;;;;;;;;;21.90;63.44;101485.44;5138456;27;19916;-65
2023/06/17 02:35:44;;;;;;;;;;;;;;;21.92;63.05;101488.78;5142011;27;19934;-66
2023/06/17 02:38:10;;;;;;;;;;;;;;;21.81;64.29;101487.00;5142739;27;19915;-65
2023/06/17 02:40:36;;;;;;;;;;;;;;;21.78;63.86;101482.06;5145054;27;19920;-65
2023/06/17 02:43:01;;;;;;;;;;;;;;;21.77;64.18;101489.41;5145070;27;19931;-66
2023/06/17 02:45:27;;;;;;;;;;;;;;;21.69;64.63;101478.16;5145239;27;19959;-65
2023/06/17 02:47:52;;;;;;;;;;;;;;;21.70;65.18;101479.81;5145366;27;19919;-65
2023/06/17 02:50:23;;;;;;;;;;;;;;;21.68;65.32;101485.50;5142760;27;19934;-65
2023/06/17 02:52:55;;;;;;;;;;;;;;;21.67;65.60;101483.03;5145121;27;20027;-65
2023/06/17 02:55:21;;;;;;;;;;;;;;;21.65;65.71;101474.28;5140913;27;19931;-64
2023/06/17 02:57:46;;;;;;;;;;;;;;;21.58;65.84;101472.56;5144362;27;19912;-65
2023/06/17 03:00:13;;;;;;;;;;;;;;;21.69;65.90;101472.72;5141280;27;19923;-66
2023/06/17 03:02:38;;;;;;;;;;;;;;;21.56;66.96;101466.56;5143664;27;19919;-66
2023/06/17 03:05:06;;;;;;;;;;;;;;;21.60;67.29;101469.59;5141364;27;19983;-64
2023/06/17 03:07:35;;;;;;;;;;;;;;;21.49;67.86;101474.09;5143151;27;19923;-65
2023/06/17 03:10:02;;;;;;;;;;;;;;;21.52;67.33;101468.16;5141753;27;19920;-65
2023/06/17 03:12:33;;;;;;;;;;;;;;;21.50;67.20;101462.13;5128509;27;19983;-65
2023/06/17 03:14:59;;;;;;;;;;;;;;;21.43;67.71;101465.03;5142014;27;19923;-65
2023/06/17 03:17:24;;;;;;;;;;;;;;;21.44;67.27;101461.25;5143609;27;19931;-66
2023/06/17 03:19:50;;;;;;;;;;;;;;;21.47;67.24;101459.94;5143727;27;19923;-66
2023/06/17 03:22:16;;;;;;;;;;;;;;;21.43;67.58;101465.03;5142392;27;19916;-66
2023/06/17 03:24:47;;;;;;;;;;;;;;;21.42;68.72;101463.41;5144495;27;19926;-65
2023/06/17 03:27:12;;;;;;;;;;;;;;;21.37;69.91;101460.63;5143178;27;19955;-65
2023/06/17 03:29:38;;;;;;;;;;;;;;;21.33;70.57;101460.31;5139248;27;19926;-65
2023/06/17 03:32:04;;;;;;;;;;;;;;;21.40;71.35;101462.00;5140942;27;19920;-65
2023/06/17 03:34:31;;;;;;;;;;;;;;;21.30;72.98;101460.81;5143482;28;19920;-65
2023/06/17 03:36:56;;;;;;;;;;;;;;;21.40;72.67;101464.72;5141019;28;19912;-65
2023/06/17 03:39:24;;;;;;;;;;;;;;;21.39;73.69;101466.63;5144126;28;20020;-65
2023/06/17 03:41:50;;;;;;;;;;;;;;;21.35;74.28;101460.88;5140714;28;19915;-65
2023/06/17 03:44:16;;;;;;;;;;;;;;;21.38;74.61;101466.88;5143843;28;19930;-65
2023/06/17 03:46:42;;;;;;;;;;;;;;;21.36;75.46;101461.69;5139673;28;19979;-65
2023/06/17 03:49:07;;;;;;;;;;;;;;;21.33;75.56;101471.19;5144548;28;19993;-66
2023/06/17 03:51:34;;;;;;;;;;;;;;;21.32;75.71;101469.53;5139771;28;20364;-65
2023/06/17 03:53:59;;;;;;;;;;;;;;;21.33;75.73;101463.03;5142654;28;19916;-65
2023/06/17 03:56:26;;;;;;;;;;;;;;;21.34;75.84;101464.66;5138992;28;19916;-65
2023/06/17 03:58:53;;;;;;;;;;;;;;;21.46;74.67;101463.72;5143355;28;19916;-66
2023/06/17 04:01:19;;;;;;;;;;;;;;;21.33;76.54;101460.31;5137905;28;19950;-66
2023/06/17 04:03:45;;;;;;;;;;;;;;;21.30;77.58;101460.81;5142551;28;19927;-65
2023/06/17 04:06:12;;;;;;;;;;;;;;;21.25;79.47;101460.75;5137372;28;19922;-65
2023/06/17 04:08:38;;;;;;;;;;;;;;;21.30;79.89;101458.09;5143109;28;20290;-65
2023/06/17 04:11:04;;;;;;;;;;;;;;;21.34;80.15;101461.13;5141651;28;19966;-66
2023/06/17 04:13:33;;;;;;;;;;;;;;;21.31;82.29;101457.00;5144048;28;19916;-65
2023/06/17 04:15:58;;;;;;;;;;;;;;;21.25;83.82;101462.63;5143838;28;19978;-65
2023/06/17 04:18:25;;;;;;;;;;;;;;;21.30;84.41;101473.56;5142789;28;19919;-65
2023/06/17 04:20:56;;;;;;;;;;;;;;;21.27;85.77;101465.91;5143920;28;19912;-65
2023/06/17 04:23:22;;;;;;;;;;;;;;;21.28;87.01;101468.41;5141444;28;19920;-64
2023/06/17 04:25:48;;;;;;;;;;;;;;;21.34;87.22;101461.94;5143681;28;19936;-65
2023/06/17 04:28:17;;;;;;;;;;;;;;;21.43;87.18;101470.50;5139589;28;19919;-66
2023/06/17 04:30:45;;;;;;;;;;;;;;;21.44;88.58;101466.69;5143442;28;19923;-65
2023/06/17 04:33:14;;;;;;;;;;;;;;;21.49;89.54;101465.94;5139931;28;19935;-64
2023/06/17 04:35:42;;;;;;;;;;;;;;;21.49;89.76;101461.31;5142767;28;19922;-64
2023/06/17 04:38:08;;;;;;;;;;;;;;;21.58;88.81;101461.69;5139992;28;19915;-65
2023/06/17 04:40:36;;;;;;;;;;;;;;;21.62;87.77;101456.56;5139679;28;19915;-64
2023/06/17 04:43:02;;;;;;;;;;;;;;;21.67;87.01;101463.97;5136199;28;19931;-64
2023/06/17 04:45:30;;;;;;;;;;;;;;;21.70;85.97;101458.84;5137181;28;19923;-65
2023/06/17 04:48:03;;;;;;;;;;;;;;;21.75;84.35;101460.81;5134670;28;19924;-66
2023/06/17 04:50:29;;;;;;;;;;;;;;;21.80;82.90;101463.56;5146055;27;19919;-65
2023/06/17 04:53:03;;;;;;;;;;;;;;;21.83;84.06;101468.50;5142977;27;19981;-65
2023/06/17 04:55:35;;;;;;;;;;;;;;;21.85;82.98;101465.53;5139927;27;19915;-65
2023/06/17 04:58:04;;;;;;;;;;;;;;;21.80;82.99;101462.75;5143780;27;19979;-65
2023/06/17 05:00:43;;;;;;;;;;;;;;;21.84;82.26;101463.91;5140867;27;19903;-65
2023/06/17 05:03:12;;;;;;;;;;;;;;;21.98;82.64;101464.31;5141987;27;19946;-65
2023/06/17 05:05:38;;;;;;;;;;;;;;;22.05;83.42;101463.03;5140605;27;19916;-64
2023/06/17 05:08:03;;;;;;;;;;;;;;;22.08;83.31;101464.38;5143640;27;19998;-65
2023/06/17 05:10:29;;;;;;;;;;;;;;;22.03;84.77;101467.06;5143838;27;19947;-65
2023/06/17 05:12:54;;;;;;;;;;;;;;;22.21;82.82;101476.75;5141149;27;19946;-65
2023/06/17 05:15:20;;;;;;;;;;;;;;;22.18;84.01;101478.13;5145047;27;19915;-66
2023/06/17 05:17:47;;;;;;;;;;;;;;;22.27;83.61;101472.19;5141480;27;19915;-66
2023/06/17 05:20:14;;;;;;;;;;;;;;;22.41;82.26;101476.13;5143360;27;19948;-65
2023/06/17 05:22:40;;;;;;;;;;;;;;;22.47;82.27;101477.84;5141732;27;19920;-65
2023/06/17 05:25:06;;;;;;;;;;;;;;;22.55;80.44;101483.88;5142865;27;19975;-65
2023/06/17 05:27:32;;;;;;;;;;;;;;;22.59;72.80;101485.00;5141316;27;19976;-67
2023/06/17 05:29:58;;;;;;;;;;;;;;;22.64;79.15;101476.88;5140592;27;19915;-64
2023/06/17 05:32:25;;;;;;;;;;;;;;;22.63;81.68;101480.69;5142527;27;20025;-66
2023/06/17 05:34:50;;;;;;;;;;;;;;;22.73;81.13;101485.41;5142756;27;19911;-65
2023/06/17 05:37:16;;;;;;;;;;;;;;;22.75;81.87;101481.31;5142573;27;19937;-65
2023/06/17 05:39:42;;;;;;;;;;;;;;;22.82;81.11;101485.72;5142876;27;19954;-65
2023/06/17 05:42:08;;;;;;;;;;;;;;;22.83;81.43;101479.16;5142750;27;19947;-66
2023/06/17 05:44:33;;;;;;;;;;;;;;;22.87;82.03;101481.13;5140178;27;19962;-66
2023/06/17 05:46:59;;;;;;;;;;;;;;;22.92;79.46;101472.97;5141207;27;19915;-66
2023/06/17 05:49:24;;;;;;;;;;;;;;;22.84;79.30;101481.66;5138982;27;19958;-66
2023/06/17 05:51:50;;;;;;;;;;;;;;;22.78;79.71;101486.22;5142061;27;19973;-66
2023/06/17 05:54:16;;;;;;;;;;;;;;;22.95;71.59;101482.53;5138936;27;19915;-65
2023/06/17 05:56:42;;;;;;;;;;;;;;;22.98;77.32;101473.81;5175351;27;19979;-65
2023/06/17 05:59:07;;;;;;;;;;;;;;;23.20;77.59;101481.03;5141882;27;19915;-65
2023/06/17 06:01:36;;;;;;;;;;;;;;;23.18;78.63;101485.94;5141717;27;19918;-65
2023/06/17 06:04:02;;;;;;;;;;;;;;;23.25;76.34;101482.97;5143725;27;19920;-65
2023/06/17 06:06:28;;;;;;;;;;;;;;;23.24;75.54;101484.84;5145048;27;19927;-65
2023/06/17 06:08:54;;;;;;;;;;;;;;;23.38;73.64;101484.41;5141917;27;19919;-65
2023/06/17 06:11:19;;;;;;;;;;;;;;;23.33;68.93;101486.03;5140103;27;19920;-65
2023/06/17 06:13:45;;;;;;;;;;;;;;;23.56;63.62;101488.56;5124415;27;19924;-65
2023/06/17 06:16:11;;;;;;;;;;;;;;;23.68;62.24;101480.97;5141422;27;19916;-64
2023/06/17 06:18:37;;;;;;;;;;;;;;;23.80;62.14;101488.09;5143654;27;19915;-65
2023/06/17 06:21:02;;;;;;;;;;;;;;;23.83;58.15;101484.81;5139902;27;19907;-65
2023/06/17 06:23:28;;;;;;;;;;;;;;;23.83;56.16;101485.66;5141578;27;19926;-65
2023/06/17 06:25:54;;;;;;;;;;;;;;;24.19;55.27;101484.91;5142216;27;19968;-65
2023/06/17 06:28:19;;;;;;;;;;;;;;;24.10;54.46;101492.81;5143094;27;19938;-64
2023/06/17 06:30:44;;;;;;;;;;;;;;;24.06;52.17;101491.72;5142255;27;19941;-65
2023/06/17 06:33:10;;;;;;;;;;;;;;;24.10;52.21;101494.72;5143478;27;19927;-66
2023/06/17 06:35:36;;;;;;;;;;;;;;;24.19;51.98;101491.19;5142668;27;19978;-65
2023/06/17 06:38:02;;;;;;;;;;;;;;;24.34;51.92;101492.28;5143967;27;19916;-65
2023/06/17 06:40:28;;;;;;;;;;;;;;;24.27;50.65;101489.03;5141821;27;19937;-66
2023/06/17 06:42:53;;;;;;;;;;;;;;;24.48;49.08;101501.59;5126425;27;19926;-67
2023/06/17 06:45:22;;;;;;;;;;;;;;;24.57;48.53;101503.78;5140132;27;19915;-66
2023/06/17 06:47:47;;;;;;;;;;;;;;;24.73;48.27;101497.19;5144084;27;19936;-66
2023/06/17 06:50:13;;;;;;;;;;;;;;;24.72;48.42;101495.56;5140898;27;19994;-65
2023/06/17 06:52:39;;;;;;;;;;;;;;;24.81;46.80;101500.50;5141225;27;19948;-65
2023/06/17 06:55:05;;;;;;;;;;;;;;;24.89;46.41;101494.44;5122955;28;19920;-66
2023/06/17 06:57:30;;;;;;;;;;;;;;;24.98;45.59;101494.72;5144832;27;19915;-64
2023/06/17 06:59:56;;;;;;;;;;;;;;;24.82;44.18;101497.50;5140071;27;19919;-66
2023/06/17 07:02:21;;;;;;;;;;;;;;;25.08;44.76;101496.59;5139199;27;19936;-65
2023/06/17 07:04:47;;;;;;;;;;;;;;;25.18;44.25;101494.66;5136618;27;19968;-65
2023/06/17 07:07:17;;;;;;;;;;;;;;;25.22;43.63;101489.44;5136020;27;20004;-66
2023/06/17 07:09:44;;;;;;;;;;;;;;;25.28;43.78;101491.06;5140390;27;19922;-65
2023/06/17 07:12:11;;;;;;;;;;;;;;;25.40;43.54;101498.16;5139699;27;19919;-66
2023/06/17 07:14:37;;;;;;;;;;;;;;;25.51;44.20;101494.28;5138856;27;19951;-65
2023/06/17 07:17:04;;;;;;;;;;;;;;;25.55;43.02;101492.63;5137915;27;19915;-64
2023/06/17 07:19:30;;;;;;;;;;;;;;;25.59;42.48;101498.34;5135756;27;20310;-66
2023/06/17 07:21:55;;;;;;;;;;;;;;;25.46;42.66;101497.03;5138260;27;19916;-66
2023/06/17 07:24:22;;;;;;;;;;;;;;;25.39;44.61;101489.09;5139777;27;20318;-65
2023/06/17 07:26:47;;;;;;;;;;;;;;;25.42;45.21;101496.75;5142913;27;19915;-66
2023/06/17 07:29:13;;;;;;;;;;;;;;;25.57;44.96;101486.88;5142779;27;19915;-65
2023/06/17 07:31:39;;;;;;;;;;;;;;;25.61;45.34;101487.94;5139949;27;19953;-66
2023/06/17 07:34:04;;;;;;;;;;;;;;;25.57;45.04;101493.16;5143580;28;19919;-65
2023/06/17 07:36:30;;;;;;;;;;;;;;;25.93;43.98;101483.91;5139653;28;19939;-66
2023/06/17 07:38:56;;;;;;;;;;;;;;;25.68;43.99;101487.63;5138860;28;19987;-66
2023/06/17 07:41:23;;;;;;;;;;;;;;;25.68;43.39;101493.91;5143275;28;19916;-65
2023/06/17 07:43:48;;;;;;;;;;;;;;;25.98;42.94;101491.28;5142954;28;19941;-66
2023/06/17 07:46:14;;;;;;;;;;;;;;;26.08;42.45;101483.00;5143682;28;19923;-66
2023/06/17 07:48:39;;;;;;;;;;;;;;;26.20;41.96;101490.88;5141957;28;19916;-65
2023/06/17 07:51:05;;;;;;;;;;;;;;;26.26;41.20;101486.16;5138345;28;19920;-66
2023/06/17 07:53:30;;;;;;;;;;;;;;;26.28;40.72;101484.78;5142663;28;19939;-66
2023/06/17 07:55:56;;;;;;;;;;;;;;;26.37;40.50;101486.91;5144909;27;19928;-65
2023/06/17 07:58:21;;;;;;;;;;;;;;;26.37;40.66;101487.72;5142258;28;19915;-66
2023/06/17 08:00:46;;;;;;;;;;;;;;;26.49;40.34;101490.91;5143139;28;19937;-66
2023/06/17 08:03:12;;;;;;;;;;;;;;;26.51;40.17;101493.38;5142165;28;19930;-66
2023/06/17 08:05:38;;;;;;;;;;;;;;;26.58;40.28;101496.59;5145960;28;19974;-65
2023/06/17 08:08:04;;;;;;;;;;;;;;;26.50;39.58;101489.00;5141258;28;19923;-65
2023/06/17 08:10:29;;;;;;;;;;;;;;;26.70;39.37;101493.44;5142177;27;19940;-66
2023/06/17 08:12:54;;;;;;;;;;;;;;;26.80;39.25;101491.72;5136693;28;19919;-66
2023/06/17 08:15:20;;;;;;;;;;;;;;;26.83;39.32;101491.16;5140066;28;19955;-66
2023/06/17 08:17:48;;;;;;;;;;;;;;;26.87;39.52;101478.50;5140099;28;19916;-66
2023/06/17 08:20:13;;;;;;;;;;;;;;;26.93;39.45;101474.59;5138754;28;19923;-66
2023/06/17 08:22:39;;;;;;;;;;;;;;;27.28;39.56;101488.19;5138476;27;19947;-66
2023/06/17 08:25:05;;;;;;;;;;;;;;;27.43;39.24;101484.44;5147839;27;19919;-66
2023/06/17 08:27:31;;;;;;;;;;;;;;;27.55;39.38;101479.34;5143515;27;19916;-67
2023/06/17 08:29:57;;;;;;;;;;;;;;;27.25;40.02;101481.38;5147419;27;19923;-66
2023/06/17 08:32:22;;;;;;;;;;;;;;;27.32;40.38;101479.06;5145027;27;19984;-66
2023/06/17 08:34:48;;;;;;;;;;;;;;;27.66;39.65;101476.44;5144531;27;19920;-65
2023/06/17 08:37:13;;;;;;;;;;;;;;;28.34;38.64;101482.56;5177317;27;19938;-66
2023/06/17 08:39:39;;;;;;;;;;;;;;;27.91;38.83;101480.78;5149240;27;19947;-67
2023/06/17 08:42:06;;;;;;;;;;;;;;;28.11;38.51;101479.63;5146790;27;19919;-66
2023/06/17 08:44:32;;;;;;;;;;;;;;;28.27;38.31;101483.00;5147131;27;19919;-66
2023/06/17 08:46:59;;;;;;;;;;;;;;;28.27;38.08;101482.16;5142775;27;19915;-66
2023/06/17 08:49:26;;;;;;;;;;;;;;;28.45;37.76;101481.31;5149843;27;19931;-67
2023/06/17 08:51:52;;;;;;;;;;;;;;;28.69;37.54;101491.34;5147392;27;19937;-66
2023/06/17 08:54:19;;;;;;;;;;;;;;;28.09;36.29;101487.34;5141965;27;19916;-67
2023/06/17 08:56:45;;;;;;;;;;;;;;;28.34;35.85;101485.31;5142777;27;19916;-66
2023/06/17 08:59:10;;;;;;;;;;;;;;;28.73;36.11;101484.09;5145930;27;19983;-66
2023/06/17 09:01:37;;;;;;;;;;;;;;;28.94;35.68;101483.72;5142058;27;19920;-65
2023/06/17 09:04:02;;;;;;;;;;;;;;;29.14;35.29;101487.22;5141139;27;19962;-66
2023/06/17 09:06:28;;;;;;;;;;;;;;;28.74;35.84;101491.22;5143613;27;19915;-66
2023/06/17 09:08:54;;;;;;;;;;;;;;;28.61;35.77;101489.28;5141949;27;19922;-67
2023/06/17 09:11:23;;;;;;;;;;;;;;;28.60;34.58;101490.38;5140502;27;19920;-67
2023/06/17 09:13:50;;;;;;;;;;;;;;;28.90;34.70;101494.53;5143692;27;19915;-66
2023/06/17 09:16:17;;;;;;;;;;;;;;;29.23;34.57;101496.38;5141569;27;20351;-66
2023/06/17 09:18:43;;;;;;;;;;;;;;;29.00;35.05;101489.97;5140678;27;19916;-68
2023/06/17 09:21:08;;;;;;;;;;;;;;;28.95;35.30;101493.63;5140103;27;19915;-66
2023/06/17 09:23:33;;;;;;;;;;;;;;;29.20;35.28;101491.47;5141995;27;19919;-66
2023/06/17 09:26:01;;;;;;;;;;;;;;;29.54;34.52;101489.41;5138478;27;19925;-67
2023/06/17 09:28:26;;;;;;;;;;;;;;;29.80;34.39;101486.91;5138899;27;19959;-67
2023/06/17 09:30:53;;;;;;;;;;;;;;;29.57;35.13;101495.13;5140530;27;19926;-66
2023/06/17 09:33:22;;;;;;;;;;;;;;;29.78;35.33;101494.69;5140605;27;19955;-67
2023/06/17 09:35:47;;;;;;;;;;;;;;;30.27;34.36;101491.34;5138241;27;19916;-66
2023/06/17 09:38:17;;;;;;;;;;;;;;;30.37;34.48;101479.22;5140464;27;19930;-67
2023/06/17 09:40:42;;;;;;;;;;;;;;;30.69;33.98;101491.94;5136232;28;20014;-67
2023/06/17 09:43:11;;;;;;;;;;;;;;;31.10;33.93;101486.38;5140793;27;19920;-67
2023/06/17 09:45:37;;;;;;;;;;;;;;;31.28;34.24;101490.84;5139616;27;19912;-67
2023/06/17 09:48:03;;;;;;;;;;;;;;;31.71;32.96;101500.31;5137184;27;19930;-67
2023/06/17 09:50:32;;;;;;;;;;;;;;;32.42;32.28;101490.06;5140470;27;19915;-67
2023/06/17 09:52:59;;;;;;;;;;;;;;;32.26;32.70;101494.44;5137538;27;19922;-67
2023/06/17 09:55:26;;;;;;;;;;;;;;;33.36;31.58;101495.03;5143020;27;19916;-67
2023/06/17 09:57:55;;;;;;;;;;;;;;;34.11;30.58;101497.06;5138814;27;19924;-67
2023/06/17 10:00:21;;;;;;;;;;;;;;;34.84;29.60;101505.13;5140112;27;19919;-67
2023/06/17 10:02:46;;;;;;;;;;;;;;;35.28;28.86;101501.75;5138688;27;19957;-67
2023/06/17 10:05:12;;;;;;;;;;;;;;;36.01;27.56;101501.91;5139452;27;19935;-68
2023/06/17 10:07:39;;;;;;;;;;;;;;;35.92;27.50;101499.28;5138235;27;19923;-67
2023/06/17 10:10:08;;;;;;;;;;;;;;;36.88;27.09;101506.94;5142158;27;19915;-67
2023/06/17 10:12:36;;;;;;;;;;;;;;;37.83;26.15;101498.69;5139485;27;19920;-67
2023/06/17 10:15:02;;;;;;;;;;;;;;;38.20;26.02;101503.00;5140894;27;19915;-68
2023/06/17 10:17:28;;;;;;;;;;;;;;;38.83;24.95;101495.28;5139489;27;19927;-68
2023/06/17 10:19:54;;;;;;;;;;;;;;;39.04;25.25;101499.63;5139202;27;19920;-67
2023/06/17 10:22:21;;;;;;;;;;;;;;;38.95;25.12;101497.91;5141100;27;19920;-67
2023/06/17 10:24:50;;;;;;;;;;;;;;;38.76;24.42;101503.59;5142744;27;19922;-67
2023/06/17 10:27:18;;;;;;;;;;;;;;;38.91;25.31;101485.84;5143025;27;19920;-67
2023/06/17 10:29:47;;;;;;;;;;;;;;;39.76;23.85;101496.97;5142495;27;19920;-68
2023/06/17 10:32:24;;;;;;;;;;;;;;;40.07;23.39;101489.34;5141404;27;19923;-67
2023/06/17 10:35:05;;;;;;;;;;;;;;;40.60;23.10;101493.03;5139266;27;19916;-67
2023/06/17 10:37:31;;;;;;;;;;;;;;;40.82;22.77;101489.22;5137767;27;19916;-67
2023/06/17 10:40:15;;;;;;;;;;;;;;;40.81;23.08;101486.78;5139921;27;19936;-68
2023/06/17 10:42:52;;;;;;;;;;;;;;;40.85;22.96;101487.63;5140769;27;19920;-67
2023/06/17 10:45:17;;;;;;;;;;;;;;;40.53;22.43;101483.38;5135809;27;19916;-67
2023/06/17 10:47:42;;;;;;;;;;;;;;;40.90;22.49;101484.44;5144626;27;19926;-67
2023/06/17 10:50:11;;;;;;;;;;;;;;;41.18;21.75;101483.03;5140115;27;19916;-67
2023/06/17 10:52:38;;;;;;;;;;;;;;;41.78;21.50;101486.50;5141372;27;19916;-67
2023/06/17 10:55:03;;;;;;;;;;;;;;;42.30;21.77;101479.75;5139748;27;19975;-66
2023/06/17 10:57:31;;;;;;;;;;;;;;;42.38;21.22;101486.97;5139773;27;19927;-68
2023/06/17 11:00:06;;;;;;;;;;;;;;;42.62;19.99;101480.97;5141493;27;19916;-67
2023/06/17 11:02:32;;;;;;;;;;;;;;;43.19;19.38;101477.25;5143737;27;19916;-67
2023/06/17 11:04:58;;;;;;;;;;;;;;;43.41;19.76;101475.16;5135714;27;19930;-67
2023/06/17 11:07:27;;;;;;;;;;;;;;;43.92;19.47;101468.44;5138964;27;19963;-67
2023/06/17 11:09:52;;;;;;;;;;;;;;;43.50;20.39;101471.88;5142284;27;19924;-67
2023/06/17 11:12:17;;;;;;;;;;;;;;;44.14;18.81;101471.91;5142602;27;19962;-67
2023/06/17 11:14:45;;;;;;;;;;;;;;;44.33;18.41;101467.75;5137408;27;21282;-67
2023/06/17 11:17:11;;;;;;;;;;;;;;;42.80;19.04;101469.69;5141526;27;19919;-67
2023/06/17 11:19:37;;;;;;;;;;;;;;;43.49;19.13;101453.41;5140782;27;19920;-66
2023/06/17 11:22:05;;;;;;;;;;;;;;;43.76;17.70;101463.34;5136070;28;19916;-67
2023/06/17 11:24:31;;;;;;;;;;;;;;;43.59;18.30;101462.19;5139742;27;19929;-67
2023/06/17 11:26:57;;;;;;;;;;;;;;;44.37;17.94;101462.06;5138755;27;19923;-67
2023/06/17 11:29:24;;;;;;;;;;;;;;;44.47;18.06;101451.91;5142009;27;19919;-68
2023/06/17 11:31:50;;;;;;;;;;;;;;;45.42;18.66;101449.63;5133185;28;19942;-67
2023/06/17 11:34:16;;;;;;;;;;;;;;;45.87;17.45;101448.59;5139344;27;19927;-67
2023/06/17 11:36:41;;;;;;;;;;;;;;;46.30;18.00;101444.25;5140480;28;19915;-68
2023/06/17 11:39:11;;;;;;;;;;;;;;;46.90;16.96;101440.75;5138786;28;19915;-68
2023/06/17 11:41:37;;;;;;;;;;;;;;;47.29;17.36;101438.31;5136947;28;19916;-67
2023/06/17 11:44:02;;;;;;;;;;;;;;;47.14;16.35;101437.81;5138574;28;19955;-67
2023/06/17 11:46:28;;;;;;;;;;;;;;;47.11;17.29;101433.03;5138213;28;19915;-67
2023/06/17 11:48:54;;;;;;;;;;;;;;;47.12;17.23;101428.16;5132917;28;19991;-67
2023/06/17 11:51:20;;;;;;;;;;;;;;;47.56;15.46;101436.50;5136855;28;19943;-67
2023/06/17 11:53:46;;;;;;;;;;;;;;;47.86;16.39;101434.59;5137711;28;19916;-67
2023/06/17 11:56:12;;;;;;;;;;;;;;;47.93;14.85;101425.91;5137193;28;19921;-67
2023/06/17 11:58:39;;;;;;;;;;;;;;;48.82;14.77;101432.47;5144045;27;19923;-67
2023/06/17 12:01:05;;;;;;;;;;;;;;;47.81;14.25;101424.59;5140070;27;19916;-67
2023/06/17 12:03:32;;;;;;;;;;;;;;;47.61;15.72;101421.81;5144041;27;19941;-66
2023/06/17 12:05:57;;;;;;;;;;;;;;;48.76;13.55;101422.91;5136230;27;19915;-67
2023/06/17 12:08:35;;;;;;;;;;;;;;;49.23;13.39;101422.34;5141413;27;19916;-68
2023/06/17 12:11:05;;;;;;;;;;;;;;;49.67;13.12;101426.66;5136107;28;19916;-67
2023/06/17 12:13:41;;;;;;;;;;;;;;;49.66;13.56;101416.56;5140432;27;19992;-67
2023/06/17 12:16:10;;;;;;;;;;;;;;;47.27;14.60;101411.66;5142950;27;19941;-67
2023/06/17 12:18:36;;;;;;;;;;;;;;;46.76;14.42;101410.69;5137391;27;19940;-66
2023/06/17 12:21:08;;;;;;;;;;;;;;;47.87;14.15;101399.34;5140621;27;19924;-66
2023/06/17 12:23:34;;;;;;;;;;;;;;;48.56;13.53;101409.69;5139793;27;19927;-67
2023/06/17 12:25:59;;;;;;;;;;;;;;;48.59;13.42;101413.69;5141634;27;19923;-66
2023/06/17 12:28:25;;;;;;;;;;;;;;;48.27;14.10;101406.84;5139811;27;19919;-67
2023/06/17 12:30:50;;;;;;;;;;;;;;;49.07;13.20;101408.22;5138250;27;19911;-67
2023/06/17 12:33:16;;;;;;;;;;;;;;;47.78;13.40;101403.63;5143016;27;19915;-67